sensor_id;sensor_type;location;lat;lon;timestamp;P1;durP1;ratioP1;P2;durP2;ratioP2
60935;SDS011;46804;51.786;19.520;2023-05-07T00:02:07;4.95;;;3.00;;
60935;SDS011;46804;51.786;19.520;2023-05-07T00:06:08;4.60;;;2.80;;
60935;SDS011;46804;51.786;19.520;2023-05-07T00:10:10;4.10;;;2.67;;
60935;SDS011;46804;51.786;19.520;2023-05-07T00:14:12;5.53;;;2.90;;
60935;SDS011;46804;51.786;19.520;2023-05-07T00:18:13;4.43;;;3.08;;
60935;SDS011;46804;51.786;19.520;2023-05-07T00:22:14;6.05;;;3.00;;
60935;SDS011;46804;51.786;19.520;2023-05-07T00:26:15;6.20;;;3.45;;
60935;SDS011;46804;51.786;19.520;2023-05-07T00:30:16;4.63;;;3.03;;
60935;SDS011;46804;51.786;19.520;2023-05-07T00:34:17;6.20;;;3.55;;
60935;SDS011;46804;51.786;19.520;2023-05-07T00:38:17;6.05;;;3.40;;
60935;SDS011;46804;51.786;19.520;2023-05-07T00:42:18;5.25;;;3.45;;
60935;SDS011;46804;51.786;19.520;2023-05-07T00:46:20;5.85;;;3.40;;
60935;SDS011;46804;51.786;19.520;2023-05-07T00:50:21;5.93;;;3.50;;
60935;SDS011;46804;51.786;19.520;2023-05-07T00:54:22;4.97;;;3.25;;
60935;SDS011;46804;51.786;19.520;2023-05-07T00:58:23;7.22;;;3.88;;
60935;SDS011;46804;51.786;19.520;2023-05-07T01:02:24;7.50;;;3.50;;
60935;SDS011;46804;51.786;19.520;2023-05-07T01:06:25;4.68;;;2.90;;
60935;SDS011;46804;51.786;19.520;2023-05-07T01:10:28;5.07;;;3.33;;
60935;SDS011;46804;51.786;19.520;2023-05-07T01:14:31;5.60;;;3.90;;
60935;SDS011;46804;51.786;19.520;2023-05-07T01:18:33;4.22;;;3.10;;
60935;SDS011;46804;51.786;19.520;2023-05-07T01:22:34;12.15;;;3.58;;
60935;SDS011;46804;51.786;19.520;2023-05-07T01:26:39;4.55;;;3.38;;
60935;SDS011;46804;51.786;19.520;2023-05-07T01:30:40;6.40;;;3.33;;
60935;SDS011;46804;51.786;19.520;2023-05-07T01:34:47;5.38;;;3.17;;
60935;SDS011;46804;51.786;19.520;2023-05-07T01:38:49;7.22;;;3.95;;
60935;SDS011;46804;51.786;19.520;2023-05-07T01:42:50;6.60;;;3.60;;
60935;SDS011;46804;51.786;19.520;2023-05-07T01:46:51;8.65;;;3.70;;
60935;SDS011;46804;51.786;19.520;2023-05-07T01:50:52;6.00;;;3.38;;
60935;SDS011;46804;51.786;19.520;2023-05-07T01:54:53;5.45;;;3.33;;
60935;SDS011;46804;51.786;19.520;2023-05-07T01:58:54;8.77;;;3.88;;
60935;SDS011;46804;51.786;19.520;2023-05-07T02:02:54;7.22;;;3.28;;
60935;SDS011;46804;51.786;19.520;2023-05-07T02:06:56;6.10;;;3.97;;
60935;SDS011;46804;51.786;19.520;2023-05-07T02:10:56;4.97;;;3.30;;
60935;SDS011;46804;51.786;19.520;2023-05-07T02:14:57;4.53;;;3.17;;
60935;SDS011;46804;51.786;19.520;2023-05-07T02:18:58;5.97;;;3.83;;
60935;SDS011;46804;51.786;19.520;2023-05-07T02:22:58;5.28;;;3.50;;
60935;SDS011;46804;51.786;19.520;2023-05-07T02:26:59;5.28;;;3.30;;
60935;SDS011;46804;51.786;19.520;2023-05-07T02:31:01;4.38;;;2.95;;
60935;SDS011;46804;51.786;19.520;2023-05-07T02:35:03;6.97;;;3.33;;
60935;SDS011;46804;51.786;19.520;2023-05-07T02:39:04;5.80;;;3.50;;
60935;SDS011;46804;51.786;19.520;2023-05-07T02:43:05;4.30;;;3.17;;
60935;SDS011;46804;51.786;19.520;2023-05-07T02:47:06;6.45;;;3.63;;
60935;SDS011;46804;51.786;19.520;2023-05-07T02:51:08;7.07;;;3.57;;
60935;SDS011;46804;51.786;19.520;2023-05-07T02:55:09;7.40;;;3.97;;
60935;SDS011;46804;51.786;19.520;2023-05-07T02:59:10;6.18;;;3.20;;
60935;SDS011;46804;51.786;19.520;2023-05-07T03:03:11;7.10;;;3.35;;
60935;SDS011;46804;51.786;19.520;2023-05-07T03:07:12;7.65;;;3.03;;
60935;SDS011;46804;51.786;19.520;2023-05-07T03:11:12;4.57;;;2.97;;
60935;SDS011;46804;51.786;19.520;2023-05-07T03:15:13;5.50;;;3.08;;
60935;SDS011;46804;51.786;19.520;2023-05-07T03:19:14;4.50;;;2.90;;
60935;SDS011;46804;51.786;19.520;2023-05-07T03:23:15;4.97;;;3.55;;
60935;SDS011;46804;51.786;19.520;2023-05-07T03:27:15;6.32;;;3.70;;
60935;SDS011;46804;51.786;19.520;2023-05-07T03:31:16;5.50;;;3.47;;
60935;SDS011;46804;51.786;19.520;2023-05-07T03:35:16;6.30;;;3.75;;
60935;SDS011;46804;51.786;19.520;2023-05-07T03:39:17;5.32;;;3.40;;
60935;SDS011;46804;51.786;19.520;2023-05-07T03:43:18;6.32;;;3.30;;
60935;SDS011;46804;51.786;19.520;2023-05-07T03:47:18;6.28;;;3.30;;
60935;SDS011;46804;51.786;19.520;2023-05-07T03:51:19;5.63;;;3.20;;
60935;SDS011;46804;51.786;19.520;2023-05-07T03:55:20;7.22;;;3.80;;
60935;SDS011;46804;51.786;19.520;2023-05-07T03:59:21;7.25;;;3.42;;
60935;SDS011;46804;51.786;19.520;2023-05-07T04:03:22;6.50;;;3.67;;
60935;SDS011;46804;51.786;19.520;2023-05-07T04:07:23;5.53;;;3.17;;
60935;SDS011;46804;51.786;19.520;2023-05-07T04:11:23;4.78;;;3.30;;
60935;SDS011;46804;51.786;19.520;2023-05-07T04:15:24;5.50;;;3.30;;
60935;SDS011;46804;51.786;19.520;2023-05-07T04:19:25;4.90;;;3.00;;
60935;SDS011;46804;51.786;19.520;2023-05-07T04:23:26;5.65;;;3.20;;
60935;SDS011;46804;51.786;19.520;2023-05-07T04:27:27;5.72;;;3.65;;
60935;SDS011;46804;51.786;19.520;2023-05-07T04:31:28;5.47;;;3.50;;
60935;SDS011;46804;51.786;19.520;2023-05-07T04:35:29;8.73;;;3.75;;
60935;SDS011;46804;51.786;19.520;2023-05-07T04:39:29;6.40;;;3.72;;
60935;SDS011;46804;51.786;19.520;2023-05-07T04:43:30;5.75;;;3.72;;
60935;SDS011;46804;51.786;19.520;2023-05-07T04:47:31;6.40;;;3.10;;
60935;SDS011;46804;51.786;19.520;2023-05-07T04:51:32;5.80;;;3.65;;
60935;SDS011;46804;51.786;19.520;2023-05-07T04:55:33;4.50;;;2.90;;
60935;SDS011;46804;51.786;19.520;2023-05-07T04:59:33;5.38;;;3.05;;
60935;SDS011;46804;51.786;19.520;2023-05-07T05:03:34;3.45;;;2.55;;
60935;SDS011;46804;51.786;19.520;2023-05-07T05:07:34;4.50;;;3.05;;
60935;SDS011;46804;51.786;19.520;2023-05-07T05:11:35;6.82;;;3.25;;
60935;SDS011;46804;51.786;19.520;2023-05-07T05:15:36;4.88;;;3.30;;
60935;SDS011;46804;51.786;19.520;2023-05-07T05:19:36;5.53;;;3.00;;
60935;SDS011;46804;51.786;19.520;2023-05-07T05:23:37;4.47;;;3.03;;
60935;SDS011;46804;51.786;19.520;2023-05-07T05:27:39;5.13;;;3.67;;
60935;SDS011;46804;51.786;19.520;2023-05-07T05:31:40;5.00;;;3.38;;
60935;SDS011;46804;51.786;19.520;2023-05-07T05:35:42;8.50;;;2.85;;
60935;SDS011;46804;51.786;19.520;2023-05-07T05:39:42;5.00;;;3.17;;
60935;SDS011;46804;51.786;19.520;2023-05-07T05:43:43;5.25;;;3.35;;
60935;SDS011;46804;51.786;19.520;2023-05-07T05:47:44;4.72;;;3.13;;
60935;SDS011;46804;51.786;19.520;2023-05-07T05:51:45;4.90;;;3.17;;
60935;SDS011;46804;51.786;19.520;2023-05-07T05:55:45;4.82;;;3.08;;
60935;SDS011;46804;51.786;19.520;2023-05-07T05:59:46;4.95;;;2.85;;
60935;SDS011;46804;51.786;19.520;2023-05-07T06:03:47;5.72;;;3.40;;
60935;SDS011;46804;51.786;19.520;2023-05-07T06:07:48;4.53;;;2.80;;
60935;SDS011;46804;51.786;19.520;2023-05-07T06:11:49;7.18;;;2.78;;
60935;SDS011;46804;51.786;19.520;2023-05-07T06:15:50;5.53;;;3.30;;
60935;SDS011;46804;51.786;19.520;2023-05-07T06:19:51;4.72;;;3.10;;
60935;SDS011;46804;51.786;19.520;2023-05-07T06:23:52;4.72;;;2.85;;
60935;SDS011;46804;51.786;19.520;2023-05-07T06:27:53;7.22;;;3.35;;
60935;SDS011;46804;51.786;19.520;2023-05-07T06:31:53;8.13;;;4.13;;
60935;SDS011;46804;51.786;19.520;2023-05-07T06:35:54;6.55;;;4.03;;
60935;SDS011;46804;51.786;19.520;2023-05-07T06:39:55;7.72;;;3.67;;
60935;SDS011;46804;51.786;19.520;2023-05-07T06:43:55;10.65;;;4.28;;
60935;SDS011;46804;51.786;19.520;2023-05-07T06:47:56;4.70;;;3.15;;
60935;SDS011;46804;51.786;19.520;2023-05-07T06:51:57;7.13;;;3.58;;
60935;SDS011;46804;51.786;19.520;2023-05-07T06:55:58;6.15;;;3.30;;
60935;SDS011;46804;51.786;19.520;2023-05-07T06:59:58;3.65;;;2.78;;
60935;SDS011;46804;51.786;19.520;2023-05-07T07:03:59;5.50;;;2.88;;
60935;SDS011;46804;51.786;19.520;2023-05-07T07:08:00;5.30;;;3.42;;
60935;SDS011;46804;51.786;19.520;2023-05-07T07:12:01;3.75;;;2.25;;
60935;SDS011;46804;51.786;19.520;2023-05-07T07:16:02;6.78;;;3.15;;
60935;SDS011;46804;51.786;19.520;2023-05-07T07:20:03;3.22;;;2.45;;
60935;SDS011;46804;51.786;19.520;2023-05-07T07:24:04;8.10;;;3.40;;
60935;SDS011;46804;51.786;19.520;2023-05-07T07:28:05;4.60;;;2.70;;
60935;SDS011;46804;51.786;19.520;2023-05-07T07:32:06;6.55;;;3.72;;
60935;SDS011;46804;51.786;19.520;2023-05-07T07:36:07;3.38;;;2.22;;
60935;SDS011;46804;51.786;19.520;2023-05-07T07:40:08;4.32;;;2.63;;
60935;SDS011;46804;51.786;19.520;2023-05-07T07:44:09;5.13;;;3.08;;
60935;SDS011;46804;51.786;19.520;2023-05-07T07:52:13;5.03;;;2.90;;
60935;SDS011;46804;51.786;19.520;2023-05-07T07:56:14;5.93;;;3.22;;
60935;SDS011;46804;51.786;19.520;2023-05-07T08:00:15;4.43;;;2.55;;
60935;SDS011;46804;51.786;19.520;2023-05-07T08:04:16;6.05;;;3.55;;
60935;SDS011;46804;51.786;19.520;2023-05-07T08:08:17;10.63;;;4.30;;
60935;SDS011;46804;51.786;19.520;2023-05-07T08:12:18;5.03;;;2.88;;
60935;SDS011;46804;51.786;19.520;2023-05-07T08:16:19;6.80;;;2.80;;
60935;SDS011;46804;51.786;19.520;2023-05-07T08:20:20;6.63;;;2.78;;
60935;SDS011;46804;51.786;19.520;2023-05-07T08:24:20;6.15;;;3.00;;
60935;SDS011;46804;51.786;19.520;2023-05-07T08:28:21;5.45;;;3.30;;
60935;SDS011;46804;51.786;19.520;2023-05-07T08:32:22;7.38;;;3.65;;
60935;SDS011;46804;51.786;19.520;2023-05-07T08:36:23;13.25;;;5.88;;
60935;SDS011;46804;51.786;19.520;2023-05-07T08:40:24;12.05;;;6.28;;
60935;SDS011;46804;51.786;19.520;2023-05-07T08:44:26;25.85;;;11.70;;
60935;SDS011;46804;51.786;19.520;2023-05-07T08:48:29;15.20;;;7.40;;
60935;SDS011;46804;51.786;19.520;2023-05-07T08:52:31;3.67;;;2.57;;
60935;SDS011;46804;51.786;19.520;2023-05-07T08:56:32;5.57;;;3.10;;
60935;SDS011;46804;51.786;19.520;2023-05-07T09:00:33;6.53;;;3.72;;
60935;SDS011;46804;51.786;19.520;2023-05-07T09:04:35;14.07;;;5.28;;
60935;SDS011;46804;51.786;19.520;2023-05-07T09:08:36;3.65;;;2.42;;
60935;SDS011;46804;51.786;19.520;2023-05-07T09:12:37;3.53;;;2.33;;
60935;SDS011;46804;51.786;19.520;2023-05-07T09:16:39;4.93;;;2.92;;
60935;SDS011;46804;51.786;19.520;2023-05-07T09:20:40;5.82;;;2.75;;
60935;SDS011;46804;51.786;19.520;2023-05-07T09:24:44;7.22;;;3.88;;
60935;SDS011;46804;51.786;19.520;2023-05-07T09:28:47;4.28;;;2.80;;
60935;SDS011;46804;51.786;19.520;2023-05-07T09:32:48;4.75;;;2.67;;
60935;SDS011;46804;51.786;19.520;2023-05-07T09:36:49;6.78;;;3.38;;
60935;SDS011;46804;51.786;19.520;2023-05-07T09:41:01;3.67;;;2.50;;
60935;SDS011;46804;51.786;19.520;2023-05-07T09:45:04;7.63;;;3.00;;
60935;SDS011;46804;51.786;19.520;2023-05-07T09:49:06;5.45;;;3.22;;
60935;SDS011;46804;51.786;19.520;2023-05-07T09:53:09;5.22;;;2.85;;
60935;SDS011;46804;51.786;19.520;2023-05-07T09:57:10;9.13;;;2.90;;
60935;SDS011;46804;51.786;19.520;2023-05-07T10:01:13;3.70;;;2.50;;
60935;SDS011;46804;51.786;19.520;2023-05-07T10:05:14;5.88;;;3.42;;
60935;SDS011;46804;51.786;19.520;2023-05-07T10:09:15;5.15;;;3.28;;
60935;SDS011;46804;51.786;19.520;2023-05-07T10:13:16;6.55;;;2.97;;
60935;SDS011;46804;51.786;19.520;2023-05-07T10:17:19;7.90;;;3.37;;
60935;SDS011;46804;51.786;19.520;2023-05-07T10:21:21;5.15;;;3.15;;
60935;SDS011;46804;51.786;19.520;2023-05-07T10:25:25;5.60;;;3.50;;
60935;SDS011;46804;51.786;19.520;2023-05-07T10:29:36;6.15;;;2.78;;
60935;SDS011;46804;51.786;19.520;2023-05-07T10:33:58;7.40;;;3.15;;
60935;SDS011;46804;51.786;19.520;2023-05-07T10:38:00;4.93;;;2.63;;
60935;SDS011;46804;51.786;19.520;2023-05-07T10:42:07;5.15;;;3.00;;
60935;SDS011;46804;51.786;19.520;2023-05-07T10:54:18;4.00;;;2.65;;
60935;SDS011;46804;51.786;19.520;2023-05-07T10:58:25;4.40;;;2.50;;
60935;SDS011;46804;51.786;19.520;2023-05-07T11:11:08;7.03;;;2.70;;
60935;SDS011;46804;51.786;19.520;2023-05-07T11:15:10;4.80;;;2.90;;
60935;SDS011;46804;51.786;19.520;2023-05-07T11:19:11;7.20;;;3.20;;
60935;SDS011;46804;51.786;19.520;2023-05-07T11:27:35;5.10;;;3.03;;
60935;SDS011;46804;51.786;19.520;2023-05-07T11:31:36;3.88;;;2.55;;
60935;SDS011;46804;51.786;19.520;2023-05-07T11:35:37;4.07;;;2.53;;
60935;SDS011;46804;51.786;19.520;2023-05-07T11:39:38;5.22;;;2.92;;
60935;SDS011;46804;51.786;19.520;2023-05-07T11:43:53;6.10;;;2.90;;
60935;SDS011;46804;51.786;19.520;2023-05-07T11:47:55;3.60;;;2.40;;
60935;SDS011;46804;51.786;19.520;2023-05-07T11:51:56;4.95;;;2.60;;
60935;SDS011;46804;51.786;19.520;2023-05-07T11:55:56;5.47;;;2.30;;
60935;SDS011;46804;51.786;19.520;2023-05-07T11:59:58;3.53;;;2.03;;
60935;SDS011;46804;51.786;19.520;2023-05-07T12:04:00;3.38;;;2.22;;
60935;SDS011;46804;51.786;19.520;2023-05-07T12:08:04;5.95;;;2.50;;
60935;SDS011;46804;51.786;19.520;2023-05-07T12:12:04;5.45;;;2.75;;
60935;SDS011;46804;51.786;19.520;2023-05-07T12:16:05;9.23;;;3.15;;
60935;SDS011;46804;51.786;19.520;2023-05-07T12:20:07;3.90;;;2.28;;
60935;SDS011;46804;51.786;19.520;2023-05-07T12:24:08;4.22;;;2.45;;
60935;SDS011;46804;51.786;19.520;2023-05-07T12:28:12;3.97;;;2.60;;
60935;SDS011;46804;51.786;19.520;2023-05-07T12:32:14;3.72;;;2.17;;
60935;SDS011;46804;51.786;19.520;2023-05-07T12:36:16;3.20;;;2.13;;
60935;SDS011;46804;51.786;19.520;2023-05-07T12:40:17;7.97;;;2.70;;
60935;SDS011;46804;51.786;19.520;2023-05-07T12:44:17;4.15;;;2.67;;
60935;SDS011;46804;51.786;19.520;2023-05-07T12:48:22;9.82;;;3.05;;
60935;SDS011;46804;51.786;19.520;2023-05-07T12:52:23;5.70;;;2.30;;
60935;SDS011;46804;51.786;19.520;2023-05-07T12:56:24;5.53;;;2.58;;
60935;SDS011;46804;51.786;19.520;2023-05-07T13:00:34;7.18;;;2.97;;
60935;SDS011;46804;51.786;19.520;2023-05-07T13:04:36;4.63;;;2.90;;
60935;SDS011;46804;51.786;19.520;2023-05-07T13:08:38;5.70;;;2.03;;
60935;SDS011;46804;51.786;19.520;2023-05-07T13:12:41;5.80;;;3.47;;
60935;SDS011;46804;51.786;19.520;2023-05-07T13:16:42;5.50;;;2.75;;
60935;SDS011;46804;51.786;19.520;2023-05-07T13:20:43;5.20;;;2.50;;
60935;SDS011;46804;51.786;19.520;2023-05-07T13:24:43;4.88;;;2.60;;
60935;SDS011;46804;51.786;19.520;2023-05-07T13:28:44;5.80;;;2.85;;
60935;SDS011;46804;51.786;19.520;2023-05-07T13:32:44;5.40;;;3.08;;
60935;SDS011;46804;51.786;19.520;2023-05-07T13:36:48;5.22;;;2.72;;
60935;SDS011;46804;51.786;19.520;2023-05-07T13:40:48;7.38;;;3.10;;
60935;SDS011;46804;51.786;19.520;2023-05-07T13:44:49;5.43;;;3.03;;
60935;SDS011;46804;51.786;19.520;2023-05-07T13:48:50;5.03;;;2.90;;
60935;SDS011;46804;51.786;19.520;2023-05-07T13:52:51;4.53;;;2.78;;
60935;SDS011;46804;51.786;19.520;2023-05-07T13:56:52;6.65;;;3.08;;
60935;SDS011;46804;51.786;19.520;2023-05-07T14:00:52;6.97;;;2.42;;
60935;SDS011;46804;51.786;19.520;2023-05-07T14:04:53;4.53;;;2.65;;
60935;SDS011;46804;51.786;19.520;2023-05-07T14:08:54;4.55;;;2.75;;
60935;SDS011;46804;51.786;19.520;2023-05-07T14:12:55;7.15;;;3.78;;
60935;SDS011;46804;51.786;19.520;2023-05-07T14:16:56;7.70;;;3.53;;
60935;SDS011;46804;51.786;19.520;2023-05-07T14:20:57;5.97;;;4.05;;
60935;SDS011;46804;51.786;19.520;2023-05-07T14:24:58;7.13;;;3.30;;
60935;SDS011;46804;51.786;19.520;2023-05-07T14:28:58;5.15;;;2.97;;
60935;SDS011;46804;51.786;19.520;2023-05-07T14:32:59;6.35;;;2.70;;
60935;SDS011;46804;51.786;19.520;2023-05-07T14:37:00;6.93;;;3.35;;
60935;SDS011;46804;51.786;19.520;2023-05-07T14:41:01;5.78;;;3.10;;
60935;SDS011;46804;51.786;19.520;2023-05-07T14:45:02;4.07;;;2.50;;
60935;SDS011;46804;51.786;19.520;2023-05-07T14:49:04;4.63;;;2.83;;
60935;SDS011;46804;51.786;19.520;2023-05-07T14:53:05;5.70;;;3.88;;
60935;SDS011;46804;51.786;19.520;2023-05-07T14:57:06;5.03;;;2.75;;
60935;SDS011;46804;51.786;19.520;2023-05-07T15:01:09;5.03;;;3.07;;
60935;SDS011;46804;51.786;19.520;2023-05-07T15:05:09;5.68;;;3.05;;
60935;SDS011;46804;51.786;19.520;2023-05-07T15:09:10;4.25;;;2.55;;
60935;SDS011;46804;51.786;19.520;2023-05-07T15:13:11;3.70;;;2.55;;
60935;SDS011;46804;51.786;19.520;2023-05-07T15:17:12;6.60;;;4.90;;
60935;SDS011;46804;51.786;19.520;2023-05-07T15:21:15;5.88;;;2.95;;
60935;SDS011;46804;51.786;19.520;2023-05-07T15:25:16;7.05;;;3.38;;
60935;SDS011;46804;51.786;19.520;2023-05-07T15:29:17;3.22;;;2.20;;
60935;SDS011;46804;51.786;19.520;2023-05-07T15:33:17;4.20;;;2.40;;
60935;SDS011;46804;51.786;19.520;2023-05-07T15:37:18;3.83;;;2.40;;
60935;SDS011;46804;51.786;19.520;2023-05-07T15:41:19;5.93;;;2.92;;
60935;SDS011;46804;51.786;19.520;2023-05-07T15:45:20;4.55;;;2.90;;
60935;SDS011;46804;51.786;19.520;2023-05-07T15:49:21;4.80;;;2.65;;
60935;SDS011;46804;51.786;19.520;2023-05-07T15:53:22;3.92;;;2.60;;
60935;SDS011;46804;51.786;19.520;2023-05-07T15:57:23;4.43;;;2.30;;
60935;SDS011;46804;51.786;19.520;2023-05-07T16:01:24;5.65;;;3.42;;
60935;SDS011;46804;51.786;19.520;2023-05-07T16:05:25;4.97;;;2.70;;
60935;SDS011;46804;51.786;19.520;2023-05-07T16:09:26;5.20;;;2.55;;
60935;SDS011;46804;51.786;19.520;2023-05-07T16:13:28;5.90;;;2.88;;
60935;SDS011;46804;51.786;19.520;2023-05-07T16:17:29;3.97;;;2.60;;
60935;SDS011;46804;51.786;19.520;2023-05-07T16:21:29;3.50;;;2.28;;
60935;SDS011;46804;51.786;19.520;2023-05-07T16:25:30;4.40;;;2.55;;
60935;SDS011;46804;51.786;19.520;2023-05-07T16:29:31;4.78;;;2.63;;
60935;SDS011;46804;51.786;19.520;2023-05-07T16:33:32;5.80;;;2.67;;
60935;SDS011;46804;51.786;19.520;2023-05-07T16:37:33;6.40;;;2.90;;
60935;SDS011;46804;51.786;19.520;2023-05-07T16:41:34;6.80;;;2.95;;
60935;SDS011;46804;51.786;19.520;2023-05-07T16:45:35;3.35;;;2.28;;
60935;SDS011;46804;51.786;19.520;2023-05-07T16:49:36;4.70;;;2.60;;
60935;SDS011;46804;51.786;19.520;2023-05-07T16:53:37;5.25;;;3.00;;
60935;SDS011;46804;51.786;19.520;2023-05-07T16:57:37;7.03;;;2.97;;
60935;SDS011;46804;51.786;19.520;2023-05-07T17:01:38;4.93;;;2.70;;
60935;SDS011;46804;51.786;19.520;2023-05-07T17:05:39;9.48;;;3.10;;
60935;SDS011;46804;51.786;19.520;2023-05-07T17:09:40;5.57;;;2.90;;
60935;SDS011;46804;51.786;19.520;2023-05-07T17:13:42;5.55;;;2.53;;
60935;SDS011;46804;51.786;19.520;2023-05-07T17:17:42;4.57;;;2.80;;
60935;SDS011;46804;51.786;19.520;2023-05-07T17:21:43;4.25;;;2.72;;
60935;SDS011;46804;51.786;19.520;2023-05-07T17:25:43;7.10;;;3.00;;
60935;SDS011;46804;51.786;19.520;2023-05-07T17:29:45;4.68;;;2.70;;
60935;SDS011;46804;51.786;19.520;2023-05-07T17:33:45;4.55;;;2.65;;
60935;SDS011;46804;51.786;19.520;2023-05-07T17:37:46;5.13;;;3.10;;
60935;SDS011;46804;51.786;19.520;2023-05-07T17:41:51;6.90;;;3.83;;
60935;SDS011;46804;51.786;19.520;2023-05-07T17:45:52;8.50;;;3.88;;
60935;SDS011;46804;51.786;19.520;2023-05-07T17:49:53;13.35;;;6.88;;
60935;SDS011;46804;51.786;19.520;2023-05-07T17:53:54;24.00;;;12.05;;
60935;SDS011;46804;51.786;19.520;2023-05-07T17:57:56;13.60;;;7.25;;
60935;SDS011;46804;51.786;19.520;2023-05-07T18:01:56;7.95;;;4.45;;
60935;SDS011;46804;51.786;19.520;2023-05-07T18:05:57;7.10;;;3.67;;
60935;SDS011;46804;51.786;19.520;2023-05-07T18:09:59;4.95;;;2.65;;
60935;SDS011;46804;51.786;19.520;2023-05-07T18:14:00;7.78;;;4.85;;
60935;SDS011;46804;51.786;19.520;2023-05-07T18:18:00;10.40;;;5.30;;
60935;SDS011;46804;51.786;19.520;2023-05-07T18:22:01;11.35;;;5.70;;
60935;SDS011;46804;51.786;19.520;2023-05-07T18:26:02;18.63;;;9.65;;
60935;SDS011;46804;51.786;19.520;2023-05-07T18:30:03;22.70;;;13.57;;
60935;SDS011;46804;51.786;19.520;2023-05-07T18:34:04;26.95;;;15.27;;
60935;SDS011;46804;51.786;19.520;2023-05-07T18:38:05;29.88;;;16.65;;
60935;SDS011;46804;51.786;19.520;2023-05-07T18:42:06;27.88;;;14.45;;
60935;SDS011;46804;51.786;19.520;2023-05-07T18:46:08;20.05;;;10.90;;
60935;SDS011;46804;51.786;19.520;2023-05-07T18:50:08;18.98;;;11.38;;
60935;SDS011;46804;51.786;19.520;2023-05-07T18:54:09;20.85;;;11.77;;
60935;SDS011;46804;51.786;19.520;2023-05-07T18:58:10;14.30;;;8.90;;
60935;SDS011;46804;51.786;19.520;2023-05-07T19:02:12;10.80;;;7.25;;
60935;SDS011;46804;51.786;19.520;2023-05-07T19:06:16;10.70;;;6.43;;
60935;SDS011;46804;51.786;19.520;2023-05-07T19:10:16;13.82;;;8.25;;
60935;SDS011;46804;51.786;19.520;2023-05-07T19:14:17;10.60;;;6.28;;
60935;SDS011;46804;51.786;19.520;2023-05-07T19:18:18;10.52;;;6.10;;
60935;SDS011;46804;51.786;19.520;2023-05-07T19:22:18;25.13;;;11.10;;
60935;SDS011;46804;51.786;19.520;2023-05-07T19:26:19;27.65;;;11.55;;
60935;SDS011;46804;51.786;19.520;2023-05-07T19:30:20;14.35;;;7.10;;
60935;SDS011;46804;51.786;19.520;2023-05-07T19:34:22;10.52;;;6.15;;
60935;SDS011;46804;51.786;19.520;2023-05-07T19:38:23;9.60;;;4.80;;
60935;SDS011;46804;51.786;19.520;2023-05-07T19:42:25;9.50;;;5.07;;
60935;SDS011;46804;51.786;19.520;2023-05-07T19:46:26;11.93;;;5.75;;
60935;SDS011;46804;51.786;19.520;2023-05-07T19:50:27;10.55;;;5.57;;
60935;SDS011;46804;51.786;19.520;2023-05-07T19:54:27;14.05;;;6.95;;
60935;SDS011;46804;51.786;19.520;2023-05-07T19:58:28;12.35;;;6.70;;
60935;SDS011;46804;51.786;19.520;2023-05-07T20:02:29;10.73;;;6.10;;
60935;SDS011;46804;51.786;19.520;2023-05-07T20:06:30;11.30;;;6.38;;
60935;SDS011;46804;51.786;19.520;2023-05-07T20:10:31;10.63;;;5.97;;
60935;SDS011;46804;51.786;19.520;2023-05-07T20:14:32;9.65;;;5.53;;
60935;SDS011;46804;51.786;19.520;2023-05-07T20:18:33;12.25;;;4.90;;
60935;SDS011;46804;51.786;19.520;2023-05-07T20:22:34;9.75;;;4.20;;
60935;SDS011;46804;51.786;19.520;2023-05-07T20:26:34;7.43;;;4.05;;
60935;SDS011;46804;51.786;19.520;2023-05-07T20:30:35;9.88;;;4.75;;
60935;SDS011;46804;51.786;19.520;2023-05-07T20:34:36;11.02;;;5.60;;
60935;SDS011;46804;51.786;19.520;2023-05-07T20:38:36;13.40;;;5.28;;
60935;SDS011;46804;51.786;19.520;2023-05-07T20:42:37;13.45;;;4.65;;
60935;SDS011;46804;51.786;19.520;2023-05-07T20:46:38;11.05;;;5.28;;
60935;SDS011;46804;51.786;19.520;2023-05-07T20:50:39;8.70;;;5.22;;
60935;SDS011;46804;51.786;19.520;2023-05-07T20:54:40;6.90;;;4.25;;
60935;SDS011;46804;51.786;19.520;2023-05-07T20:58:43;14.80;;;5.90;;
60935;SDS011;46804;51.786;19.520;2023-05-07T21:02:45;8.23;;;5.03;;
60935;SDS011;46804;51.786;19.520;2023-05-07T21:06:47;9.48;;;5.35;;
60935;SDS011;46804;51.786;19.520;2023-05-07T21:10:48;13.25;;;6.05;;
60935;SDS011;46804;51.786;19.520;2023-05-07T21:14:50;9.25;;;5.35;;
60935;SDS011;46804;51.786;19.520;2023-05-07T21:18:51;9.18;;;4.72;;
60935;SDS011;46804;51.786;19.520;2023-05-07T21:22:52;7.85;;;4.93;;
60935;SDS011;46804;51.786;19.520;2023-05-07T21:26:53;10.77;;;4.95;;
60935;SDS011;46804;51.786;19.520;2023-05-07T21:30:55;7.13;;;4.90;;
60935;SDS011;46804;51.786;19.520;2023-05-07T21:34:57;11.07;;;5.03;;
60935;SDS011;46804;51.786;19.520;2023-05-07T21:38:58;8.73;;;4.63;;
60935;SDS011;46804;51.786;19.520;2023-05-07T21:42:59;6.68;;;4.55;;
60935;SDS011;46804;51.786;19.520;2023-05-07T21:47:00;10.02;;;4.28;;
60935;SDS011;46804;51.786;19.520;2023-05-07T21:51:01;7.00;;;4.18;;
60935;SDS011;46804;51.786;19.520;2023-05-07T21:55:02;10.65;;;4.30;;
60935;SDS011;46804;51.786;19.520;2023-05-07T21:59:03;8.73;;;4.53;;
60935;SDS011;46804;51.786;19.520;2023-05-07T22:03:04;8.00;;;4.05;;
60935;SDS011;46804;51.786;19.520;2023-05-07T22:07:05;6.60;;;4.18;;
60935;SDS011;46804;51.786;19.520;2023-05-07T22:11:07;7.68;;;4.22;;
60935;SDS011;46804;51.786;19.520;2023-05-07T22:15:08;8.43;;;3.97;;
60935;SDS011;46804;51.786;19.520;2023-05-07T22:19:09;11.50;;;4.57;;
60935;SDS011;46804;51.786;19.520;2023-05-07T22:23:10;6.65;;;4.18;;
60935;SDS011;46804;51.786;19.520;2023-05-07T22:27:10;9.13;;;4.30;;
60935;SDS011;46804;51.786;19.520;2023-05-07T22:31:11;11.98;;;5.28;;
60935;SDS011;46804;51.786;19.520;2023-05-07T22:35:12;8.15;;;4.78;;
60935;SDS011;46804;51.786;19.520;2023-05-07T22:39:13;7.40;;;4.10;;
60935;SDS011;46804;51.786;19.520;2023-05-07T22:43:14;7.38;;;4.03;;
60935;SDS011;46804;51.786;19.520;2023-05-07T22:47:14;7.50;;;4.10;;
60935;SDS011;46804;51.786;19.520;2023-05-07T22:51:15;9.05;;;4.20;;
60935;SDS011;46804;51.786;19.520;2023-05-07T22:55:16;8.95;;;4.90;;
60935;SDS011;46804;51.786;19.520;2023-05-07T22:59:17;8.43;;;4.55;;
60935;SDS011;46804;51.786;19.520;2023-05-07T23:03:18;7.97;;;4.07;;
60935;SDS011;46804;51.786;19.520;2023-05-07T23:07:19;6.75;;;4.30;;
60935;SDS011;46804;51.786;19.520;2023-05-07T23:11:19;8.20;;;4.13;;
60935;SDS011;46804;51.786;19.520;2023-05-07T23:15:20;8.70;;;4.22;;
60935;SDS011;46804;51.786;19.520;2023-05-07T23:19:22;7.47;;;4.60;;
60935;SDS011;46804;51.786;19.520;2023-05-07T23:23:22;7.03;;;4.10;;
60935;SDS011;46804;51.786;19.520;2023-05-07T23:27:23;9.07;;;3.72;;
60935;SDS011;46804;51.786;19.520;2023-05-07T23:31:23;5.82;;;3.55;;
60935;SDS011;46804;51.786;19.520;2023-05-07T23:35:24;7.05;;;4.03;;
60935;SDS011;46804;51.786;19.520;2023-05-07T23:39:25;7.13;;;4.05;;
60935;SDS011;46804;51.786;19.520;2023-05-07T23:43:26;13.10;;;3.67;;
60935;SDS011;46804;51.786;19.520;2023-05-07T23:47:26;10.75;;;3.92;;
60935;SDS011;46804;51.786;19.520;2023-05-07T23:51:27;8.10;;;4.50;;
60935;SDS011;46804;51.786;19.520;2023-05-07T23:55:28;8.45;;;3.55;;
60935;SDS011;46804;51.786;19.520;2023-05-07T23:59:28;6.28;;;3.72;;
